createdAt,value
2022-11-07T00:02:11.161Z,7.48
2022-11-07T00:04:38.767Z,7.55
2022-11-07T00:07:11.613Z,7.53
2022-11-07T00:09:38.551Z,7.58
2022-11-07T00:12:08.039Z,7.61
2022-11-07T00:14:35.094Z,7.60
2022-11-07T00:17:01.884Z,7.64
2022-11-07T00:19:28.788Z,7.65
2022-11-07T00:21:58.370Z,7.62
2022-11-07T00:24:25.082Z,7.63
2022-11-07T00:26:51.982Z,7.62
2022-11-07T00:29:20.951Z,7.64
2022-11-07T00:31:49.335Z,7.70
2022-11-07T00:34:16.512Z,7.75
2022-11-07T00:36:43.420Z,7.77
2022-11-07T00:39:11.796Z,7.83
2022-11-07T00:41:38.780Z,7.87
2022-11-07T00:44:05.873Z,7.91
2022-11-07T00:46:32.562Z,7.95
2022-11-07T00:48:59.477Z,7.95
2022-11-07T00:51:29.155Z,7.98
2022-11-07T00:53:56.091Z,8.03
2022-11-07T00:56:25.724Z,8.11
2022-11-07T00:58:59.531Z,8.08
2022-11-07T01:01:31.637Z,8.07
2022-11-07T01:04:17.705Z,8.07
2022-11-07T01:06:46.474Z,8.11
2022-11-07T01:09:21.303Z,8.12
2022-11-07T01:11:49.546Z,8.11
2022-11-07T01:14:20.241Z,8.20
2022-11-07T01:16:47.595Z,8.18
2022-11-07T01:19:15.156Z,8.13
2022-11-07T01:21:43.602Z,8.17
2022-11-07T01:24:13.831Z,8.18
2022-11-07T01:26:43.828Z,8.21
2022-11-07T01:29:11.123Z,8.23
2022-11-07T01:31:37.907Z,8.22
2022-11-07T01:34:05.345Z,8.29
2022-11-07T01:36:32.570Z,8.28
2022-11-07T01:38:59.968Z,8.23
2022-11-07T01:41:32.745Z,8.26
2022-11-07T01:44:08.528Z,8.27
2022-11-07T01:46:44.979Z,8.25
2022-11-07T01:49:29.490Z,8.31
2022-11-07T01:52:14.578Z,8.31
2022-11-07T01:55:32.125Z,8.29
2022-11-07T01:58:08.888Z,8.40
2022-11-07T02:00:37.219Z,8.43
2022-11-07T02:03:17.472Z,8.43
2022-11-07T02:05:56.150Z,8.46
2022-11-07T02:08:26.604Z,8.48
2022-11-07T02:10:54.623Z,8.38
2022-11-07T02:13:31.971Z,8.40
2022-11-07T02:16:04.608Z,8.49
2022-11-07T02:18:38.323Z,8.52
2022-11-07T02:21:35.299Z,8.48
2022-11-07T02:24:08.517Z,8.48
2022-11-07T02:26:39.494Z,8.39
2022-11-07T02:29:12.890Z,8.36
2022-11-07T02:31:39.808Z,8.43
2022-11-07T02:34:08.619Z,8.57
2022-11-07T02:36:35.397Z,8.58
2022-11-07T02:39:02.232Z,8.62
2022-11-07T02:41:35.117Z,8.69
2022-11-07T02:44:12.343Z,8.75
2022-11-07T02:46:40.810Z,8.69
2022-11-07T02:49:09.596Z,8.66
2022-11-07T02:51:36.321Z,8.64
2022-11-07T02:54:03.490Z,8.64
2022-11-07T02:56:30.089Z,8.58
2022-11-07T02:58:59.762Z,8.64
2022-11-07T03:01:26.715Z,8.65
2022-11-07T03:03:53.668Z,8.72
2022-11-07T03:06:26.305Z,8.77
2022-11-07T03:08:53.113Z,8.83
2022-11-07T03:11:20.253Z,8.86
2022-11-07T03:13:49.975Z,8.85
2022-11-07T03:16:20.798Z,8.88
2022-11-07T03:18:47.740Z,8.85
2022-11-07T03:21:14.638Z,8.89
2022-11-07T03:23:41.381Z,8.88
2022-11-07T03:26:08.165Z,8.81
2022-11-07T03:28:35.002Z,8.81
2022-11-07T03:31:04.511Z,8.87
2022-11-07T03:33:32.328Z,8.84
2022-11-07T03:35:59.009Z,8.89
2022-11-07T03:38:25.817Z,8.91
2022-11-07T03:40:52.571Z,9.11
2022-11-07T03:43:19.439Z,9.14
2022-11-07T03:45:46.179Z,9.19
2022-11-07T03:48:16.022Z,9.18
2022-11-07T03:50:42.623Z,9.26
2022-11-07T03:53:09.346Z,9.29
2022-11-07T03:55:35.983Z,9.25
2022-11-07T03:58:02.725Z,9.22
2022-11-07T04:00:35.272Z,9.22
2022-11-07T04:03:04.273Z,9.24
2022-11-07T04:05:31.143Z,9.18
2022-11-07T04:07:58.173Z,9.15
2022-11-07T04:10:24.814Z,9.26
2022-11-07T04:13:09.976Z,9.28
2022-11-07T04:15:58.734Z,9.27
2022-11-07T04:18:25.421Z,9.28
2022-11-07T04:20:52.039Z,9.32
2022-11-07T04:23:18.711Z,9.37
2022-11-07T04:26:17.449Z,9.28
2022-11-07T04:28:44.093Z,9.27
2022-11-07T04:31:10.828Z,9.32
2022-11-07T04:33:37.565Z,9.35
2022-11-07T04:36:04.691Z,9.35
2022-11-07T04:38:31.453Z,9.32
2022-11-07T04:40:59.071Z,9.30
2022-11-07T04:43:28.415Z,9.21
2022-11-07T04:45:55.045Z,9.24
2022-11-07T04:48:22.231Z,9.30
2022-11-07T04:50:49.801Z,9.28
2022-11-07T04:53:18.957Z,9.32
2022-11-07T04:55:45.641Z,9.27
2022-11-07T04:58:12.494Z,9.24
2022-11-07T05:00:39.353Z,9.27
2022-11-07T05:03:06.140Z,9.25
2022-11-07T05:05:33.029Z,9.26
2022-11-07T05:07:59.636Z,9.26
2022-11-07T05:10:34.729Z,9.20
2022-11-07T05:13:01.367Z,9.16
2022-11-07T05:15:28.094Z,9.17
2022-11-07T05:17:54.679Z,9.29
2022-11-07T05:20:39.838Z,9.44
2022-11-07T05:23:16.152Z,9.56
2022-11-07T05:25:50.718Z,9.63
2022-11-07T05:28:33.557Z,9.57
2022-11-07T05:31:04.835Z,9.51
2022-11-07T06:14:02.653Z,9.59
2022-11-07T06:16:29.420Z,9.58
2022-11-07T06:18:56.169Z,9.50
2022-11-07T06:21:22.877Z,9.43
2022-11-07T06:23:49.692Z,9.36
2022-11-07T06:26:16.419Z,9.31
2022-11-07T06:28:43.303Z,9.26
2022-11-07T07:33:04.736Z,10.08
2022-11-07T07:35:31.420Z,10.08
2022-11-07T07:37:58.083Z,10.15
2022-11-07T07:40:24.715Z,10.19
2022-11-07T07:42:51.393Z,10.26
2022-11-07T07:45:20.853Z,10.46
2022-11-07T07:47:47.614Z,10.54
2022-11-07T07:50:17.194Z,10.48
2022-11-07T07:52:43.813Z,10.47
2022-11-07T07:55:11.465Z,10.39
2022-11-07T07:57:42.721Z,10.40
2022-11-07T08:00:12.942Z,10.32
2022-11-07T08:02:43.364Z,10.40
2022-11-07T08:05:12.959Z,10.38
2022-11-07T08:07:51.131Z,10.36
2022-11-07T08:10:40.937Z,10.40
2022-11-07T08:13:06.767Z,10.48
2022-11-07T08:15:36.152Z,10.53
2022-11-07T08:18:04.700Z,10.45
2022-11-07T08:20:32.426Z,10.51
2022-11-07T08:23:12.858Z,10.49
2022-11-07T08:25:42.181Z,10.51
2022-11-07T08:28:09.033Z,10.53
2022-11-07T08:30:35.950Z,10.55
2022-11-07T08:33:03.829Z,10.61
2022-11-07T08:35:31.506Z,10.63
2022-11-07T08:37:59.487Z,10.76
2022-11-07T08:40:27.050Z,10.98
2022-11-07T08:43:01.624Z,11.06
2022-11-07T08:45:28.470Z,10.97
2022-11-07T08:48:00.382Z,11.12
2022-11-07T08:50:27.481Z,11.34
2022-11-07T08:52:59.592Z,11.45
2022-11-07T08:55:29.623Z,11.62
2022-11-07T08:58:02.745Z,11.79
2022-11-07T09:00:30.939Z,11.65
2022-11-07T09:03:43.520Z,11.59
2022-11-07T09:05:58.354Z,11.60
2022-11-07T09:08:25.441Z,11.60
2022-11-07T09:10:52.057Z,11.56
2022-11-07T09:13:20.778Z,11.61
2022-11-07T09:15:51.429Z,11.50
2022-11-07T09:18:19.901Z,11.51
2022-11-07T09:20:47.309Z,11.59
2022-11-07T09:23:14.537Z,11.67
2022-11-07T09:25:41.367Z,11.74
2022-11-07T09:28:08.202Z,11.72
2022-11-07T09:30:34.985Z,11.75
2022-11-07T09:33:24.340Z,12.10
2022-11-07T09:35:51.322Z,11.99
2022-11-07T09:38:21.160Z,11.90
2022-11-07T09:41:51.676Z,12.02
2022-11-07T09:45:01.689Z,12.29
2022-11-07T09:47:44.276Z,12.70
2022-11-07T09:50:37.044Z,12.29
2022-11-07T09:53:22.801Z,12.28
2022-11-07T09:55:56.778Z,12.43
2022-11-07T09:58:41.264Z,12.47
2022-11-07T10:01:20.436Z,12.41
2022-11-07T10:04:23.538Z,12.67
2022-11-07T10:07:42.326Z,12.43
2022-11-07T10:11:00.971Z,12.93
2022-11-07T10:14:02.944Z,12.82
2022-11-07T10:17:23.829Z,12.74
2022-11-07T10:20:28.391Z,12.56
2022-11-07T10:23:39.618Z,12.54
2022-11-07T10:26:23.017Z,12.65
2022-11-07T10:29:10.807Z,12.59
2022-11-07T10:31:46.607Z,12.70
2022-11-07T10:34:41.319Z,12.92
2022-11-07T10:37:09.251Z,12.83
2022-11-07T10:39:35.996Z,12.98
2022-11-07T10:42:16.165Z,12.84
2022-11-07T10:44:45.133Z,12.87
2022-11-07T10:47:25.534Z,13.43
2022-11-07T10:50:04.387Z,13.38
2022-11-07T10:52:31.036Z,12.89
2022-11-07T10:55:17.765Z,12.61
2022-11-07T10:57:57.603Z,12.45
2022-11-07T11:00:36.491Z,12.47
2022-11-07T11:03:16.367Z,12.54
2022-11-07T11:05:46.315Z,12.46
2022-11-07T11:08:32.015Z,12.63
2022-11-07T11:10:58.723Z,12.71
2022-11-07T11:13:35.898Z,12.79
2022-11-07T11:16:30.931Z,12.86
2022-11-07T11:19:02.289Z,13.13
2022-11-07T11:21:43.819Z,13.04
2022-11-07T11:24:37.619Z,12.94
2022-11-07T11:27:22.213Z,12.82
2022-11-07T11:30:11.865Z,12.63
2022-11-07T11:32:50.991Z,12.42
2022-11-07T11:35:51.724Z,12.28
2022-11-07T11:38:40.485Z,12.23
2022-11-07T11:41:51.595Z,12.37
2022-11-07T11:44:32.657Z,12.48
2022-11-07T11:47:23.450Z,12.58
2022-11-07T11:50:05.508Z,12.75
2022-11-07T11:52:32.141Z,12.73
2022-11-07T11:55:00.428Z,12.82
2022-11-07T11:58:04.847Z,12.84
2022-11-07T12:00:49.039Z,12.87
2022-11-07T12:03:45.763Z,12.79
2022-11-07T12:06:34.557Z,12.68
2022-11-07T12:09:28.488Z,12.57
2022-11-07T12:12:42.205Z,12.62
2022-11-07T12:15:56.942Z,12.52
2022-11-07T12:19:03.628Z,12.55
2022-11-07T12:21:34.137Z,12.40
2022-11-07T12:24:49.440Z,12.35
2022-11-07T12:27:32.105Z,12.42
2022-11-07T12:30:35.264Z,12.57
2022-11-07T12:33:47.546Z,12.50
2022-11-07T12:36:45.324Z,12.53
2022-11-07T12:39:33.509Z,12.49
2022-11-07T12:42:40.979Z,12.43
2022-11-07T12:45:42.404Z,12.29
2022-11-07T12:49:08.200Z,12.34
2022-11-07T12:52:04.584Z,12.34
2022-11-07T12:54:51.558Z,12.25
2022-11-07T12:57:27.084Z,12.17
2022-11-07T13:00:27.655Z,12.20
2022-11-07T13:03:45.076Z,12.23
2022-11-07T13:06:55.894Z,12.26
2022-11-07T13:09:39.093Z,12.19
2022-11-07T13:12:42.890Z,12.15
2022-11-07T13:15:13.474Z,12.17
2022-11-07T13:17:47.231Z,12.15
2022-11-07T13:20:33.727Z,12.13
2022-11-07T13:23:13.931Z,12.10
2022-11-07T13:25:40.847Z,12.05
2022-11-07T13:28:40.569Z,11.99
2022-11-07T13:31:39.414Z,11.99
2022-11-07T13:34:18.220Z,11.94
2022-11-07T13:36:49.863Z,11.94
2022-11-07T13:39:27.276Z,11.91
2022-11-07T13:41:57.398Z,11.84
2022-11-07T13:44:35.353Z,11.71
2022-11-07T13:47:17.027Z,11.46
2022-11-07T13:49:50.637Z,11.24
2022-11-07T13:52:40.260Z,11.09
2022-11-07T13:55:20.166Z,11.01
2022-11-07T13:58:01.848Z,10.97
2022-11-07T14:00:32.448Z,10.96
2022-11-07T14:03:00.976Z,11.03
2022-11-07T14:05:35.098Z,11.01
2022-11-07T14:08:38.419Z,11.09
2022-11-07T14:11:23.352Z,11.12
2022-11-07T14:13:54.826Z,11.18
2022-11-07T14:16:33.611Z,11.24
2022-11-07T14:19:13.228Z,11.32
2022-11-07T14:21:44.993Z,11.36
2022-11-07T14:24:30.391Z,11.39
2022-11-07T14:27:14.482Z,11.36
2022-11-07T14:33:00.687Z,11.39
2022-11-07T14:35:34.663Z,11.35
2022-11-07T15:36:05.301Z,11.29
2022-11-07T15:57:40.851Z,11.28
2022-11-07T18:22:02.197Z,11.22
2022-11-07T18:51:25.096Z,11.19
2022-11-07T18:53:54.704Z,11.17
2022-11-07T18:56:22.336Z,11.16
2022-11-07T19:04:13.066Z,11.03
2022-11-07T19:34:04.717Z,10.82
2022-11-07T19:47:21.139Z,10.99
2022-11-07T20:14:04.414Z,11.10
2022-11-07T20:54:17.036Z,11.55
2022-11-07T20:56:45.453Z,11.54
2022-11-07T21:26:14.807Z,11.29
2022-11-07T21:39:35.527Z,11.35
2022-11-07T21:42:02.271Z,11.37
2022-11-07T22:17:03.576Z,11.35
2022-11-07T22:27:32.790Z,11.34
2022-11-07T22:30:02.323Z,11.34
2022-11-07T22:32:28.968Z,11.35
2022-11-07T22:34:55.613Z,11.36
2022-11-07T22:37:22.237Z,11.34
2022-11-07T22:39:48.808Z,11.29
2022-11-07T22:42:19.654Z,11.23
2022-11-07T22:44:49.321Z,11.21
2022-11-07T22:47:15.937Z,11.18
2022-11-07T22:49:45.581Z,11.14
2022-11-07T22:52:12.364Z,11.12
2022-11-07T22:54:39.019Z,11.07
2022-11-07T22:57:05.622Z,11.04
2022-11-07T22:59:32.454Z,11.01
2022-11-07T23:01:59.280Z,11.03
2022-11-07T23:04:31.534Z,11.01
2022-11-07T23:06:59.591Z,10.96
2022-11-07T23:09:26.180Z,10.93
2022-11-07T23:11:52.799Z,10.92
2022-11-07T23:14:22.423Z,10.93
2022-11-07T23:16:53.693Z,10.92
2022-11-07T23:19:25.288Z,10.91
2022-11-07T23:21:56.451Z,10.89
2022-11-07T23:24:23.746Z,10.89
2022-11-07T23:26:50.723Z,10.92
2022-11-07T23:29:24.247Z,10.90
2022-11-07T23:31:52.711Z,10.88
2022-11-07T23:34:22.063Z,10.88
2022-11-07T23:36:53.004Z,10.88
2022-11-07T23:39:23.016Z,10.87
2022-11-07T23:41:49.810Z,10.89
2022-11-07T23:44:16.569Z,10.89
2022-11-07T23:47:02.827Z,10.90
2022-11-07T23:49:48.665Z,10.91
2022-11-07T23:52:16.088Z,10.91
2022-11-07T23:55:01.177Z,10.91
2022-11-07T23:57:28.037Z,10.90
